Moorland, Iowa
Current Conditions -  °F | °C
As of 2:15 PM on Sunday 25 Jan 2015 (Local Time) from KFOD Reporting Station
Overcast Overcast  
Wind Chill: 22°   Ceiling: 1200
Heat Index: 30°   Visibility: 10mi
Dew Point: 27°   Wind: 9mph
Humidity: 86%   Direction: 350°N
Pressure: 29.99"   Gusts: NA
Location:  42.44°N, 94.29°W
Report Text: KFOD 252015Z AUTO 35008KT 10SM OVC012 M01/M03 A2999 RMK AO1
Loading
Personal Weather Stations






























Interactive Weather Map New forecast layout! Learn more

10-Day Weather Forecast

Advertisements
Track Severe Weather on mobile